Time;durP1;ratioP1;P1;durP2;ratioP2;P2;SDS_P1;SDS_P2;PMS_P1;PMS_P2;Temp;Humidity;BMP_temperature;BMP_pressure;BME280_temperature;BME280_humidity;BME280_pressure;Samples;Min_cycle;Max_cycle;Signal;HPM_P1;HPM_P2
2023/10/21 00:02:20;;;;;;;9.40;5.97;;;;;;;;;;5011764;28;20278;-71
2023/10/21 00:04:46;;;;;;;8.03;5.40;;;;;;;;;;5013932;28;20274;-71
2023/10/21 00:07:12;;;;;;;11.83;7.07;;;;;;;;;;5013610;28;20262;-71
2023/10/21 00:09:38;;;;;;;9.13;6.10;;;;;;;;;;5013528;28;20219;-71
2023/10/21 00:12:06;;;;;;;8.97;5.67;;;;;;;;;;5013981;28;20630;-71
2023/10/21 00:14:32;;;;;;;12.10;5.80;;;;;;;;;;5012521;28;20271;-71
2023/10/21 00:16:59;;;;;;;6.20;5.60;;;;;;;;;;5012253;28;20184;-72
2023/10/21 00:19:24;;;;;;;13.70;6.10;;;;;;;;;;5013384;28;20200;-71
2023/10/21 00:21:53;;;;;;;7.07;5.73;;;;;;;;;;5012515;28;20176;-71
2023/10/21 00:24:19;;;;;;;9.30;5.90;;;;;;;;;;5013592;28;20176;-72
2023/10/21 00:26:47;;;;;;;6.40;5.77;;;;;;;;;;5013448;28;20233;-72
2023/10/21 00:29:14;;;;;;;13.00;5.20;;;;;;;;;;5013357;28;20207;-72
2023/10/21 00:31:40;;;;;;;10.47;6.90;;;;;;;;;;5013668;28;20211;-71
2023/10/21 00:34:06;;;;;;;7.97;6.97;;;;;;;;;;5012665;28;20179;-71
2023/10/21 00:36:32;;;;;;;9.37;6.80;;;;;;;;;;5014006;28;20205;-72
2023/10/21 00:38:58;;;;;;;8.77;6.73;;;;;;;;;;5014067;28;20211;-72
2023/10/21 00:41:24;;;;;;;9.50;6.77;;;;;;;;;;5013708;28;20179;-72
2023/10/21 00:43:50;;;;;;;7.30;5.53;;;;;;;;;;5013870;28;20180;-72
2023/10/21 00:46:17;;;;;;;6.80;5.93;;;;;;;;;;5012363;28;20197;-71
2023/10/21 00:48:43;;;;;;;5.37;4.17;;;;;;;;;;5013419;28;20218;-71
2023/10/21 00:51:09;;;;;;;8.30;5.27;;;;;;;;;;5012044;28;20184;-72
2023/10/21 00:53:36;;;;;;;8.37;5.00;;;;;;;;;;5014675;28;20261;-72
2023/10/21 00:56:02;;;;;;;7.50;4.33;;;;;;;;;;5013300;28;20661;-73
2023/10/21 00:58:31;;;;;;;6.67;4.07;;;;;;;;;;5015236;28;20670;-72
2023/10/21 01:01:01;;;;;;;6.20;3.63;;;;;;;;;;5013046;28;20274;-71
2023/10/21 01:03:28;;;;;;;5.70;4.00;;;;;;;;;;5012367;28;20221;-71
2023/10/21 01:05:54;;;;;;;7.57;4.00;;;;;;;;;;5013424;28;20223;-72
2023/10/21 01:08:20;;;;;;;7.73;3.90;;;;;;;;;;5013419;28;20616;-71
2023/10/21 01:10:46;;;;;;;7.83;3.83;;;;;;;;;;5012158;28;20218;-71
2023/10/21 01:13:12;;;;;;;4.50;3.10;;;;;;;;;;5014381;28;20665;-72
2023/10/21 01:15:38;;;;;;;5.13;3.70;;;;;;;;;;5017031;28;20176;-71
2023/10/21 01:18:04;;;;;;;5.17;3.77;;;;;;;;;;5015641;28;20688;-72
2023/10/21 01:20:30;;;;;;;3.07;2.77;;;;;;;;;;5015528;28;20180;-71
2023/10/21 01:22:57;;;;;;;3.97;3.10;;;;;;;;;;5016994;28;20184;-72
2023/10/21 01:25:23;;;;;;;4.83;3.10;;;;;;;;;;5015567;28;20215;-72
2023/10/21 01:27:55;;;;;;;7.63;3.50;;;;;;;;;;5016594;28;20282;-72
2023/10/21 01:30:21;;;;;;;4.43;2.93;;;;;;;;;;5015318;28;20182;-72
2023/10/21 01:32:48;;;;;;;5.40;2.73;;;;;;;;;;5016917;28;20696;-72
2023/10/21 01:35:14;;;;;;;9.27;2.97;;;;;;;;;;5015318;28;20714;-71
2023/10/21 01:37:40;;;;;;;5.33;2.73;;;;;;;;;;5015217;28;20227;-71
2023/10/21 01:40:09;;;;;;;7.93;3.13;;;;;;;;;;5016397;28;20192;-71
2023/10/21 01:42:36;;;;;;;3.47;2.87;;;;;;;;;;5016345;28;20172;-72
2023/10/21 01:45:02;;;;;;;6.00;3.20;;;;;;;;;;5016593;28;20180;-72
2023/10/21 01:47:29;;;;;;;6.17;2.77;;;;;;;;;;5015204;28;20207;-71
2023/10/21 01:49:57;;;;;;;6.20;2.50;;;;;;;;;;5014900;28;20196;-71
2023/10/21 01:52:23;;;;;;;3.60;2.47;;;;;;;;;;5016735;28;20176;-71
2023/10/21 01:54:49;;;;;;;2.63;2.43;;;;;;;;;;5014839;28;20589;-71
2023/10/21 01:57:15;;;;;;;3.17;2.30;;;;;;;;;;5015910;28;20235;-71
2023/10/21 01:59:41;;;;;;;6.93;2.73;;;;;;;;;;5014683;28;20572;-71
2023/10/21 02:02:07;;;;;;;5.20;2.83;;;;;;;;;;5014890;28;20184;-71
2023/10/21 02:04:34;;;;;;;5.73;2.57;;;;;;;;;;5015870;28;20317;-71
2023/10/21 02:07:00;;;;;;;5.83;3.03;;;;;;;;;;5015808;28;20176;-71
2023/10/21 02:09:26;;;;;;;5.53;2.63;;;;;;;;;;5014437;28;20223;-71
2023/10/21 02:11:55;;;;;;;2.73;2.47;;;;;;;;;;5015624;28;20255;-71
2023/10/21 02:14:22;;;;;;;3.93;2.77;;;;;;;;;;5015598;28;20266;-71
2023/10/21 02:16:49;;;;;;;4.20;3.20;;;;;;;;;;5014482;28;20180;-72
2023/10/21 02:19:15;;;;;;;6.67;3.63;;;;;;;;;;5014360;28;20302;-72
2023/10/21 02:21:41;;;;;;;5.33;3.23;;;;;;;;;;5014328;28;20226;-71
2023/10/21 02:24:07;;;;;;;4.73;3.60;;;;;;;;;;5013730;28;20191;-72
2023/10/21 02:26:33;;;;;;;6.73;3.70;;;;;;;;;;5015265;28;20176;-72
2023/10/21 02:28:59;;;;;;;5.13;4.20;;;;;;;;;;5015154;28;20211;-71
2023/10/21 02:31:25;;;;;;;7.53;4.70;;;;;;;;;;5015412;28;20168;-71
2023/10/21 02:33:51;;;;;;;6.20;4.13;;;;;;;;;;5015476;28;20180;-71
2023/10/21 02:36:17;;;;;;;6.83;4.43;;;;;;;;;;5013859;28;20172;-71
2023/10/21 02:38:43;;;;;;;9.43;5.07;;;;;;;;;;5015461;28;20196;-71
2023/10/21 02:41:09;;;;;;;7.17;5.13;;;;;;;;;;5019938;28;20215;-71
2023/10/21 02:43:35;;;;;;;7.37;5.00;;;;;;;;;;5020682;28;20730;-70
2023/10/21 02:46:08;;;;;;;7.83;5.37;;;;;;;;;;5015706;28;20180;-70
2023/10/21 02:48:34;;;;;;;8.40;5.40;;;;;;;;;;5015285;28;20609;-71
2023/10/21 02:51:00;;;;;;;8.87;6.23;;;;;;;;;;5014905;28;20184;-70
2023/10/21 02:53:26;;;;;;;8.67;6.50;;;;;;;;;;5013425;28;20720;-71
2023/10/21 02:55:52;;;;;;;10.40;6.73;;;;;;;;;;5013384;28;20180;-71
2023/10/21 02:58:18;;;;;;;10.53;7.27;;;;;;;;;;5013169;28;20602;-71
2023/10/21 03:00:44;;;;;;;10.87;7.67;;;;;;;;;;5013380;28;20562;-71
2023/10/21 03:03:10;;;;;;;10.17;8.53;;;;;;;;;;5013321;28;20184;-70
2023/10/21 03:05:36;;;;;;;8.90;7.87;;;;;;;;;;5013680;28;20187;-71
2023/10/21 03:08:02;;;;;;;11.73;9.50;;;;;;;;;;5013041;28;20704;-71
2023/10/21 03:10:28;;;;;;;14.30;10.17;;;;;;;;;;5013185;28;20215;-71
2023/10/21 03:12:54;;;;;;;12.97;9.90;;;;;;;;;;5014285;28;20187;-70
2023/10/21 03:15:20;;;;;;;12.17;9.73;;;;;;;;;;5013014;28;20184;-70
2023/10/21 03:17:46;;;;;;;17.77;11.23;;;;;;;;;;5014548;28;20211;-71
2023/10/21 03:20:12;;;;;;;16.67;10.97;;;;;;;;;;5014219;28;20183;-71
2023/10/21 03:22:38;;;;;;;15.67;11.03;;;;;;;;;;5012806;28;20222;-71
2023/10/21 03:25:05;;;;;;;14.00;11.73;;;;;;;;;;5012858;28;20215;-71
2023/10/21 03:27:32;;;;;;;14.30;10.50;;;;;;;;;;5013193;28;20207;-71
2023/10/21 03:29:58;;;;;;;21.10;11.90;;;;;;;;;;5013959;28;20245;-71
2023/10/21 03:32:23;;;;;;;15.67;11.13;;;;;;;;;;5012643;28;20482;-70
2023/10/21 03:34:49;;;;;;;12.47;10.93;;;;;;;;;;5012788;28;20253;-71
2023/10/21 03:37:15;;;;;;;16.27;10.53;;;;;;;;;;5013881;28;20199;-71
2023/10/21 03:39:41;;;;;;;13.00;10.57;;;;;;;;;;5013649;28;20568;-71
2023/10/21 03:42:07;;;;;;;11.00;8.60;;;;;;;;;;5014159;28;20613;-71
2023/10/21 03:44:33;;;;;;;11.67;7.97;;;;;;;;;;5012799;28;20508;-71
2023/10/21 03:46:59;;;;;;;10.57;7.37;;;;;;;;;;5014077;28;20234;-70
2023/10/21 03:49:25;;;;;;;10.30;7.70;;;;;;;;;;5012614;28;20234;-70
2023/10/21 03:51:51;;;;;;;10.37;7.60;;;;;;;;;;5014036;28;20204;-71
2023/10/21 03:54:17;;;;;;;9.70;7.73;;;;;;;;;;5013570;28;20180;-71
2023/10/21 03:56:43;;;;;;;10.30;8.17;;;;;;;;;;5013752;28;20669;-71
2023/10/21 03:59:09;;;;;;;13.13;8.37;;;;;;;;;;5013810;28;20196;-71
2023/10/21 04:01:35;;;;;;;9.97;8.17;;;;;;;;;;5013902;28;20180;-70
2023/10/21 04:04:01;;;;;;;12.03;8.10;;;;;;;;;;5014152;28;20267;-70
2023/10/21 04:06:27;;;;;;;14.57;8.03;;;;;;;;;;5012733;28;20251;-71
2023/10/21 04:08:53;;;;;;;12.53;8.13;;;;;;;;;;5013337;28;20299;-71
2023/10/21 04:11:21;;;;;;;12.87;8.87;;;;;;;;;;5013523;28;20180;-70
2023/10/21 04:13:46;;;;;;;13.13;8.17;;;;;;;;;;5014007;28;20556;-70
2023/10/21 04:16:13;;;;;;;15.17;8.10;;;;;;;;;;5012418;28;20183;-71
2023/10/21 04:18:39;;;;;;;10.10;7.80;;;;;;;;;;5012066;28;20211;-71
2023/10/21 04:21:05;;;;;;;11.80;8.27;;;;;;;;;;5012397;28;20184;-70
2023/10/21 04:23:31;;;;;;;11.70;8.13;;;;;;;;;;5013569;28;20226;-71
2023/10/21 04:25:57;;;;;;;13.37;8.43;;;;;;;;;;5013989;28;20187;-71
2023/10/21 04:28:23;;;;;;;13.00;7.93;;;;;;;;;;5013617;28;20275;-70
2023/10/21 04:30:49;;;;;;;11.57;8.27;;;;;;;;;;5012214;28;20184;-71
2023/10/21 04:33:15;;;;;;;11.57;8.20;;;;;;;;;;5011960;28;20199;-72
2023/10/21 04:35:41;;;;;;;15.20;8.20;;;;;;;;;;5012214;28;20557;-70
2023/10/21 04:38:10;;;;;;;15.77;9.83;;;;;;;;;;5012087;28;20287;-70
2023/10/21 04:40:36;;;;;;;13.00;8.53;;;;;;;;;;5013507;28;20211;-70
2023/10/21 04:43:03;;;;;;;13.20;9.00;;;;;;;;;;5012126;28;20215;-70
2023/10/21 04:45:29;;;;;;;11.53;8.50;;;;;;;;;;5013668;28;20186;-71
2023/10/21 04:47:55;;;;;;;14.97;8.53;;;;;;;;;;5012469;28;20203;-71
2023/10/21 04:50:21;;;;;;;16.77;8.53;;;;;;;;;;5015863;28;20274;-71
2023/10/21 04:52:47;;;;;;;17.83;9.00;;;;;;;;;;5017039;28;20660;-70
2023/10/21 04:55:13;;;;;;;11.90;7.93;;;;;;;;;;5015755;28;20680;-70
2023/10/21 04:57:39;;;;;;;15.50;8.00;;;;;;;;;;5017109;28;20568;-70
2023/10/21 05:00:08;;;;;;;13.60;7.70;;;;;;;;;;5016923;28;20230;-70
2023/10/21 05:02:34;;;;;;;13.77;7.43;;;;;;;;;;5016880;28;20175;-71
2023/10/21 05:05:00;;;;;;;12.80;7.77;;;;;;;;;;5016896;28;20188;-70
2023/10/21 05:07:26;;;;;;;13.67;8.47;;;;;;;;;;5015445;28;20246;-71
2023/10/21 05:09:52;;;;;;;12.50;7.40;;;;;;;;;;5016636;28;20606;-70
2023/10/21 05:12:19;;;;;;;16.00;8.37;;;;;;;;;;5016731;28;20182;-71
2023/10/21 05:14:45;;;;;;;13.27;8.17;;;;;;;;;;5015497;28;20202;-70
2023/10/21 05:17:11;;;;;;;14.20;8.73;;;;;;;;;;5022266;22;20702;-73
2023/10/21 05:19:38;;;;;;;11.23;7.77;;;;;;;;;;4978383;28;20177;-73
2023/10/21 05:22:04;;;;;;;14.00;8.30;;;;;;;;;;4978076;28;20200;-73
2023/10/21 05:24:30;;;;;;;14.53;7.80;;;;;;;;;;4978219;28;20322;-72
2023/10/21 05:26:55;;;;;;;17.77;8.90;;;;;;;;;;4978341;28;20588;-72
2023/10/21 05:29:21;;;;;;;22.63;10.23;;;;;;;;;;4977972;28;20197;-72
2023/10/21 05:31:49;;;;;;;16.27;11.07;;;;;;;;;;4976632;28;20188;-72
2023/10/21 05:34:18;;;;;;;17.10;11.40;;;;;;;;;;4977599;28;20177;-72
2023/10/21 05:36:44;;;;;;;18.00;11.23;;;;;;;;;;4977631;28;20197;-72
2023/10/21 05:39:13;;;;;;;15.50;11.63;;;;;;;;;;4976356;28;20181;-72
2023/10/21 05:41:41;;;;;;;26.23;18.37;;;;;;;;;;4976179;28;20181;-72
2023/10/21 05:44:07;;;;;;;16.40;11.60;;;;;;;;;;4978100;28;20177;-72
2023/10/21 05:46:33;;;;;;;15.93;10.53;;;;;;;;;;4977491;28;20621;-71
2023/10/21 05:48:59;;;;;;;15.53;11.10;;;;;;;;;;4976285;28;20205;-72
2023/10/21 05:51:24;;;;;;;13.93;10.63;;;;;;;;;;4977895;28;20261;-72
2023/10/21 05:53:52;;;;;;;17.73;11.63;;;;;;;;;;4977724;28;20228;-71
2023/10/21 05:56:18;;;;;;;17.43;10.07;;;;;;;;;;4976307;28;20578;-72
2023/10/21 05:58:43;;;;;;;15.67;11.10;;;;;;;;;;4976385;28;20185;-71
2023/10/21 06:01:11;;;;;;;12.47;9.70;;;;;;;;;;4976675;28;20181;-73
2023/10/21 06:03:37;;;;;;;14.73;11.03;;;;;;;;;;4977775;28;20181;-72
2023/10/21 06:06:03;;;;;;;18.63;12.23;;;;;;;;;;4978343;28;20265;-73
2023/10/21 06:08:30;;;;;;;15.23;11.03;;;;;;;;;;4978192;28;20578;-72
2023/10/21 06:10:56;;;;;;;13.90;9.73;;;;;;;;;;4976883;28;20188;-73
2023/10/21 06:13:22;;;;;;;17.43;11.20;;;;;;;;;;4977946;28;20177;-72
2023/10/21 06:15:48;;;;;;;18.40;10.07;;;;;;;;;;4977102;28;20236;-72
2023/10/21 06:18:14;;;;;;;14.37;9.83;;;;;;;;;;4977036;28;20216;-72
2023/10/21 06:20:41;;;;;;;13.00;9.83;;;;;;;;;;4978041;28;20556;-72
2023/10/21 06:23:06;;;;;;;16.13;10.47;;;;;;;;;;4977729;28;20181;-72
2023/10/21 06:25:33;;;;;;;17.67;11.67;;;;;;;;;;4976799;28;20189;-72
2023/10/21 06:27:59;;;;;;;10.23;9.13;;;;;;;;;;4977251;28;20587;-72
2023/10/21 06:30:25;;;;;;;17.40;12.27;;;;;;;;;;4976710;28;20212;-72
2023/10/21 06:32:51;;;;;;;16.03;12.37;;;;;;;;;;4984835;28;20169;-71
2023/10/21 06:35:17;;;;;;;18.57;12.33;;;;;;;;;;4986759;28;20632;-72
2023/10/21 06:37:43;;;;;;;23.13;17.27;;;;;;;;;;4980400;28;20200;-72
2023/10/21 06:40:09;;;;;;;42.40;26.70;;;;;;;;;;4978210;28;20219;-72
2023/10/21 06:42:35;;;;;;;29.90;18.90;;;;;;;;;;4976899;28;20189;-72
2023/10/21 06:45:02;;;;;;;32.47;20.50;;;;;;;;;;4978708;28;20188;-72
2023/10/21 06:47:28;;;;;;;31.37;18.13;;;;;;;;;;4976866;28;20263;-72
2023/10/21 06:49:54;;;;;;;29.97;18.93;;;;;;;;;;4976687;28;20608;-72
2023/10/21 06:52:21;;;;;;;26.27;16.90;;;;;;;;;;4978522;28;20235;-72
2023/10/21 06:54:47;;;;;;;27.57;16.47;;;;;;;;;;4978453;28;20264;-73
2023/10/21 06:57:20;;;;;;;20.00;14.13;;;;;;;;;;4977297;28;20272;-73
2023/10/21 06:59:46;;;;;;;22.00;15.53;;;;;;;;;;4976400;28;20180;-72
2023/10/21 07:02:12;;;;;;;22.53;14.60;;;;;;;;;;4976573;28;20182;-71
2023/10/21 07:04:38;;;;;;;22.47;13.27;;;;;;;;;;4977765;28;20181;-72
2023/10/21 07:07:04;;;;;;;17.97;12.67;;;;;;;;;;4978051;28;20193;-73
2023/10/21 07:09:30;;;;;;;15.80;10.60;;;;;;;;;;4980946;28;20205;-72
2023/10/21 07:11:56;;;;;;;17.10;9.23;;;;;;;;;;4976933;28;20169;-72
2023/10/21 07:14:23;;;;;;;13.67;9.57;;;;;;;;;;4977262;28;20181;-72
2023/10/21 07:16:48;;;;;;;14.30;9.57;;;;;;;;;;4976904;28;20209;-73
2023/10/21 07:19:14;;;;;;;12.37;8.70;;;;;;;;;;4976499;28;20539;-73
2023/10/21 07:21:41;;;;;;;11.77;8.73;;;;;;;;;;4976437;28;20185;-72
2023/10/21 07:24:11;;;;;;;9.97;8.53;;;;;;;;;;4975719;28;20192;-72
2023/10/21 07:26:37;;;;;;;11.90;8.63;;;;;;;;;;4976629;28;20201;-72
2023/10/21 07:29:03;;;;;;;11.03;9.87;;;;;;;;;;4976154;28;20211;-72
2023/10/21 07:31:29;;;;;;;16.80;11.50;;;;;;;;;;4974814;28;20211;-74
2023/10/21 07:33:55;;;;;;;15.53;10.93;;;;;;;;;;4975830;28;20683;-73
2023/10/21 07:36:21;;;;;;;15.17;10.67;;;;;;;;;;4974132;28;20228;-74
2023/10/21 07:38:47;;;;;;;13.37;9.17;;;;;;;;;;4975384;28;20252;-73
2023/10/21 07:41:14;;;;;;;10.27;6.97;;;;;;;;;;4973997;28;20230;-72
2023/10/21 07:43:40;;;;;;;6.83;5.40;;;;;;;;;;4975722;28;20191;-72
2023/10/21 07:46:06;;;;;;;8.83;4.93;;;;;;;;;;4975735;28;20197;-73
2023/10/21 07:48:32;;;;;;;4.90;3.47;;;;;;;;;;4974669;28;20291;-73
2023/10/21 07:50:58;;;;;;;5.77;2.87;;;;;;;;;;4975718;28;20176;-73
2023/10/21 07:53:25;;;;;;;4.80;2.40;;;;;;;;;;4975801;28;20205;-74
2023/10/21 07:55:52;;;;;;;2.77;1.73;;;;;;;;;;4975735;28;20265;-73
2023/10/21 07:58:18;;;;;;;4.50;1.80;;;;;;;;;;4975521;28;20178;-73
2023/10/21 08:00:44;;;;;;;1.37;1.00;;;;;;;;;;4975452;28;20187;-73
2023/10/21 08:03:10;;;;;;;1.53;1.03;;;;;;;;;;4974977;28;20706;-72
2023/10/21 08:05:36;;;;;;;1.47;1.27;;;;;;;;;;4974898;28;20196;-72
2023/10/21 08:08:03;;;;;;;1.40;1.10;;;;;;;;;;4972269;28;20922;-73
2023/10/21 08:10:29;;;;;;;2.40;1.00;;;;;;;;;;4974036;28;20412;-72
2023/10/21 08:12:55;;;;;;;2.65;1.73;;;;;;;;;;4972371;28;20391;-72
2023/10/21 08:15:21;;;;;;;2.67;1.92;;;;;;;;;;4973548;28;20771;-73
2023/10/21 08:17:47;;;;;;;6.07;3.77;;;;;;;;;;4973315;28;20209;-72
2023/10/21 08:20:13;;;;;;;3.53;1.33;;;;;;;;;;4974819;28;20702;-72
2023/10/21 08:22:40;;;;;;;11.13;5.23;;;;;;;;;;4973391;28;20208;-73
2023/10/21 08:25:08;;;;;;;13.63;6.27;;;;;;;;;;4975973;28;20640;-73
2023/10/21 08:27:36;;;;;;;7.27;4.10;;;;;;;;;;4974037;28;20695;-74
2023/10/21 08:30:02;;;;;;;5.33;2.90;;;;;;;;;;4975970;28;20166;-74
2023/10/21 08:32:28;;;;;;;2.90;2.10;;;;;;;;;;4974465;28;20184;-73
2023/10/21 08:34:53;;;;;;;6.60;3.30;;;;;;;;;;4976698;28;20192;-77
2023/10/21 08:37:20;;;;;;;4.73;2.67;;;;;;;;;;4984271;28;20197;-76
2023/10/21 08:39:48;;;;;;;2.33;1.80;;;;;;;;;;4982423;28;20541;-77
2023/10/21 08:42:14;;;;;;;3.47;2.60;;;;;;;;;;4983101;28;20289;-76
2023/10/21 08:44:41;;;;;;;2.03;1.80;;;;;;;;;;4984355;28;20188;-75
2023/10/21 08:47:07;;;;;;;5.27;3.90;;;;;;;;;;4984622;28;20197;-74
2023/10/21 08:49:33;;;;;;;1.90;1.27;;;;;;;;;;4982600;28;20201;-75
2023/10/21 08:52:00;;;;;;;1.87;1.23;;;;;;;;;;4982596;28;20181;-74
2023/10/21 08:54:27;;;;;;;1.50;1.40;;;;;;;;;;4976937;28;20172;-75
2023/10/21 08:56:53;;;;;;;1.90;1.10;;;;;;;;;;4972744;28;20451;-75
2023/10/21 08:59:19;;;;;;;3.20;1.90;;;;;;;;;;4973388;28;20220;-75
2023/10/21 09:01:48;;;;;;;3.67;2.17;;;;;;;;;;4974350;28;20218;-75
2023/10/21 09:04:14;;;;;;;2.37;1.80;;;;;;;;;;4974362;28;20239;-75
2023/10/21 09:06:57;;;;;;;2.35;2.05;;;;;;;;;;4971739;28;20474;-74
2023/10/21 09:09:26;;;;;;;2.43;1.67;;;;;;;;;;4973706;28;20236;-74
2023/10/21 09:12:05;;;;;;;1.80;1.53;;;;;;;;;;4974138;28;20177;-74
2023/10/21 09:14:31;;;;;;;2.70;1.77;;;;;;;;;;4974049;28;20169;-73
2023/10/21 09:16:57;;;;;;;2.73;1.30;;;;;;;;;;4974081;28;20225;-73
2023/10/21 09:19:29;;;;;;;4.25;1.30;;;;;;;;;;4973158;28;20388;-73
2023/10/21 09:21:55;;;;;;;3.13;2.00;;;;;;;;;;4971425;28;20476;-72
2023/10/21 09:24:22;;;;;;;1.83;1.30;;;;;;;;;;4973114;28;20405;-73
2023/10/21 09:26:48;;;;;;;2.40;1.00;;;;;;;;;;4974111;28;20198;-73
2023/10/21 09:29:18;;;;;;;2.43;1.20;;;;;;;;;;4972861;28;20244;-73
2023/10/21 09:31:54;;;;;;;1.80;1.30;;;;;;;;;;4973916;28;20174;-74
2023/10/21 09:34:33;;;;;;;4.00;1.93;;;;;;;;;;4974014;28;20177;-73
2023/10/21 09:37:06;;;;;;;4.27;1.63;;;;;;;;;;4978453;28;20195;-74
2023/10/21 09:39:33;;;;;;;2.13;1.37;;;;;;;;;;4976699;28;20188;-73
2023/10/21 09:42:00;;;;;;;2.13;1.47;;;;;;;;;;4977628;28;20546;-73
2023/10/21 09:44:26;;;;;;;2.10;1.40;;;;;;;;;;4977787;28;20184;-73
2023/10/21 09:46:54;;;;;;;1.90;1.50;;;;;;;;;;4977461;28;20193;-73
2023/10/21 09:49:20;;;;;;;3.23;1.53;;;;;;;;;;4976151;28;20675;-73
2023/10/21 09:51:52;;;;;;;3.10;1.33;;;;;;;;;;4975862;28;20212;-72
2023/10/21 09:54:22;;;;;;;5.37;1.50;;;;;;;;;;4975904;28;20212;-72
2023/10/21 09:56:49;;;;;;;2.73;1.50;;;;;;;;;;4977232;28;20208;-72
2023/10/21 09:59:15;;;;;;;3.30;1.40;;;;;;;;;;4977129;28;20643;-71
2023/10/21 10:01:42;;;;;;;2.57;1.60;;;;;;;;;;4977147;28;20220;-71
2023/10/21 10:04:10;;;;;;;7.07;3.00;;;;;;;;;;4976995;28;20712;-73
2023/10/21 10:06:36;;;;;;;5.50;2.00;;;;;;;;;;4975729;28;20291;-73
2023/10/21 10:09:06;;;;;;;2.93;1.67;;;;;;;;;;4976874;28;20197;-72
2023/10/21 10:11:32;;;;;;;2.70;1.30;;;;;;;;;;4976966;28;20221;-72
2023/10/21 10:13:58;;;;;;;3.13;1.70;;;;;;;;;;4975646;28;20184;-72
2023/10/21 10:16:25;;;;;;;1.50;1.30;;;;;;;;;;4976893;28;20201;-73
2023/10/21 10:18:52;;;;;;;2.20;1.10;;;;;;;;;;4976097;28;20180;-72
2023/10/21 10:21:20;;;;;;;1.37;1.10;;;;;;;;;;4977630;28;20578;-71
2023/10/21 10:23:50;;;;;;;2.07;1.40;;;;;;;;;;4978013;28;20263;-72
2023/10/21 10:26:27;;;;;;;6.17;1.40;;;;;;;;;;4976955;28;20201;-72
2023/10/21 10:28:53;;;;;;;3.10;1.20;;;;;;;;;;4976051;28;20208;-72
2023/10/21 10:31:21;;;;;;;2.73;1.20;;;;;;;;;;4977003;28;20276;-72
2023/10/21 10:33:51;;;;;;;3.03;1.30;;;;;;;;;;4976623;28;20271;-72
2023/10/21 10:36:27;;;;;;;5.80;1.50;;;;;;;;;;4977909;28;20546;-72
2023/10/21 10:38:54;;;;;;;4.73;1.40;;;;;;;;;;4976931;28;20173;-72
2023/10/21 10:41:20;;;;;;;2.30;0.90;;;;;;;;;;4978258;28;20180;-72
2023/10/21 10:43:49;;;;;;;1.93;1.10;;;;;;;;;;4977886;28;20264;-72
2023/10/21 10:46:22;;;;;;;3.10;1.33;;;;;;;;;;4976133;28;20216;-73
2023/10/21 10:48:52;;;;;;;2.27;1.30;;;;;;;;;;4976996;28;20251;-72
2023/10/21 10:51:21;;;;;;;3.90;1.47;;;;;;;;;;4976517;28;20276;-72
2023/10/21 10:53:52;;;;;;;4.87;3.10;;;;;;;;;;4976352;28;20173;-72
2023/10/21 10:56:20;;;;;;;4.03;2.00;;;;;;;;;;4976686;28;20288;-72
2023/10/21 10:58:47;;;;;;;5.13;1.83;;;;;;;;;;4978838;28;20177;-73
2023/10/21 11:01:25;;;;;;;5.47;1.77;;;;;;;;;;4981690;28;20274;-72
2023/10/21 11:03:58;;;;;;;2.37;1.10;;;;;;;;;;4977556;28;20211;-72
2023/10/21 11:06:26;;;;;;;2.60;1.20;;;;;;;;;;4977348;28;20205;-73
2023/10/21 11:08:52;;;;;;;5.20;1.53;;;;;;;;;;4976822;28;20201;-72
2023/10/21 11:11:18;;;;;;;3.63;1.60;;;;;;;;;;4976564;28;20280;-71
2023/10/21 11:13:45;;;;;;;5.97;1.30;;;;;;;;;;4976624;28;20181;-72
2023/10/21 11:16:11;;;;;;;3.80;1.40;;;;;;;;;;4975414;28;20212;-72
2023/10/21 11:18:39;;;;;;;2.70;1.10;;;;;;;;;;4976231;28;20196;-71
2023/10/21 11:21:07;;;;;;;1.77;1.23;;;;;;;;;;4976024;28;20203;-71
2023/10/21 11:23:35;;;;;;;4.73;1.60;;;;;;;;;;4975959;28;20177;-71
2023/10/21 11:26:01;;;;;;;2.87;1.30;;;;;;;;;;4974677;28;20185;-71
2023/10/21 11:28:27;;;;;;;2.37;1.23;;;;;;;;;;4974340;28;20590;-70
2023/10/21 11:30:53;;;;;;;5.67;1.17;;;;;;;;;;4975564;28;20648;-71
2023/10/21 11:33:20;;;;;;;4.60;1.30;;;;;;;;;;4974350;28;20644;-72
2023/10/21 11:35:47;;;;;;;3.17;1.50;;;;;;;;;;4975726;28;20266;-71
2023/10/21 11:38:14;;;;;;;4.33;1.37;;;;;;;;;;4975501;28;20343;-70
2023/10/21 11:40:40;;;;;;;6.60;1.37;;;;;;;;;;4975735;28;20581;-72
2023/10/21 11:43:07;;;;;;;2.00;1.37;;;;;;;;;;4975611;28;20180;-71
2023/10/21 11:45:34;;;;;;;2.57;1.40;;;;;;;;;;4975447;28;20180;-70
2023/10/21 11:48:01;;;;;;;4.87;1.63;;;;;;;;;;4973903;28;20224;-71
2023/10/21 11:50:33;;;;;;;2.43;1.40;;;;;;;;;;4974050;28;20185;-70
2023/10/21 11:53:05;;;;;;;7.37;1.90;;;;;;;;;;4975194;28;20253;-71
2023/10/21 12:00:26;;;;;;;5.63;1.40;;;;;;;;;;4975255;28;20667;-71
2023/10/21 12:02:25;;;;;;;5.60;2.20;;;;;;;;;;4974935;28;20204;-70
2023/10/21 12:29:11;;;;;;;3.70;1.63;;;;;;;;;;4975145;28;20255;-72
2023/10/21 12:34:20;;;;;;;4.47;1.73;;;;;;;;;;4975324;28;20184;-71
2023/10/21 12:37:20;;;;;;;3.87;1.70;;;;;;;;;;4974538;28;20320;-71
2023/10/21 12:39:47;;;;;;;5.97;2.00;;;;;;;;;;4974679;28;20706;-71
2023/10/21 12:42:34;;;;;;;4.07;1.77;;;;;;;;;;4973219;28;20348;-72
2023/10/21 12:45:08;;;;;;;5.13;1.87;;;;;;;;;;4974550;28;20264;-71
2023/10/21 12:47:34;;;;;;;4.83;2.13;;;;;;;;;;4987206;28;20200;-72
2023/10/21 12:50:00;;;;;;;9.17;1.80;;;;;;;;;;4987950;28;20185;-72
2023/10/21 12:52:25;;;;;;;5.23;1.97;;;;;;;;;;4988309;28;20232;-71
2023/10/21 12:54:51;;;;;;;5.80;2.00;;;;;;;;;;4989062;28;20177;-72
2023/10/21 12:57:17;;;;;;;6.30;1.90;;;;;;;;;;4989497;28;20223;-72
2023/10/21 12:59:43;;;;;;;5.57;1.80;;;;;;;;;;4989445;28;20213;-72
2023/10/21 13:02:10;;;;;;;5.57;2.03;;;;;;;;;;4988510;28;20192;-72
2023/10/21 13:04:42;;;;;;;5.73;1.93;;;;;;;;;;4990390;28;20264;-72
2023/10/21 13:07:08;;;;;;;7.03;2.03;;;;;;;;;;4987470;28;20233;-73
2023/10/21 13:09:35;;;;;;;5.13;1.80;;;;;;;;;;4989125;28;20211;-72
2023/10/21 13:12:09;;;;;;;5.00;2.10;;;;;;;;;;4988574;28;20699;-73
2023/10/21 13:14:35;;;;;;;6.60;1.80;;;;;;;;;;4986950;28;20162;-72
2023/10/21 13:17:01;;;;;;;11.33;2.47;;;;;;;;;;4980435;28;20287;-72
2023/10/21 13:19:29;;;;;;;6.83;2.00;;;;;;;;;;4979611;28;20208;-71
2023/10/21 13:21:55;;;;;;;5.50;1.83;;;;;;;;;;4994791;23;20189;-70
2023/10/21 13:24:21;;;;;;;5.67;1.97;;;;;;;;;;5015713;28;20557;-70
2023/10/21 13:26:47;;;;;;;8.00;2.30;;;;;;;;;;5014939;28;20184;-70
2023/10/21 13:29:13;;;;;;;5.07;2.23;;;;;;;;;;5014634;28;20221;-69
2023/10/21 13:31:39;;;;;;;5.97;2.10;;;;;;;;;;5016203;28;20559;-70
2023/10/21 13:34:06;;;;;;;4.23;1.60;;;;;;;;;;5016050;28;20191;-69
2023/10/21 13:36:33;;;;;;;6.30;2.57;;;;;;;;;;5016321;28;20168;-69
2023/10/21 13:39:00;;;;;;;5.57;2.37;;;;;;;;;;5016067;28;20187;-69
2023/10/21 13:41:26;;;;;;;9.30;2.20;;;;;;;;;;5016524;28;20179;-69
2023/10/21 13:43:53;;;;;;;5.83;2.23;;;;;;;;;;5017229;28;20662;-69
2023/10/21 13:46:19;;;;;;;6.63;2.33;;;;;;;;;;5015944;28;20267;-69
2023/10/21 13:48:44;;;;;;;5.40;2.13;;;;;;;;;;5014429;28;20290;-70
2023/10/21 13:51:11;;;;;;;11.90;2.60;;;;;;;;;;5016384;28;20535;-71
2023/10/21 13:53:37;;;;;;;7.27;2.40;;;;;;;;;;5015836;28;20629;-69
2023/10/21 13:56:06;;;;;;;7.27;2.30;;;;;;;;;;5015050;28;20180;-69
2023/10/21 13:58:32;;;;;;;6.23;2.10;;;;;;;;;;5016080;28;20180;-68
2023/10/21 14:00:59;;;;;;;6.77;2.03;;;;;;;;;;5015970;28;20187;-68
2023/10/21 14:03:25;;;;;;;4.67;2.00;;;;;;;;;;5015306;28;20195;-67
2023/10/21 14:05:52;;;;;;;6.50;2.27;;;;;;;;;;5015332;28;20681;-68
2023/10/21 14:08:25;;;;;;;8.30;3.37;;;;;;;;;;5013867;28;20684;-68
2023/10/21 14:10:55;;;;;;;6.37;2.70;;;;;;;;;;5014050;28;20182;-68
2023/10/21 14:13:24;;;;;;;7.67;2.70;;;;;;;;;;5015352;28;20196;-68
2023/10/21 14:15:51;;;;;;;8.83;2.33;;;;;;;;;;5015429;28;20179;-68
2023/10/21 14:18:18;;;;;;;9.13;2.97;;;;;;;;;;5015228;28;20202;-68
2023/10/21 14:20:47;;;;;;;7.80;4.07;;;;;;;;;;5012435;28;20191;-68
2023/10/21 14:23:14;;;;;;;11.30;3.07;;;;;;;;;;5014808;28;20697;-68
2023/10/21 14:25:41;;;;;;;5.83;2.43;;;;;;;;;;5015056;28;20179;-70
2023/10/21 14:28:11;;;;;;;9.40;2.43;;;;;;;;;;5013623;28;20868;-69
2023/10/21 14:30:41;;;;;;;8.67;2.40;;;;;;;;;;5015502;28;20226;-69
2023/10/21 14:33:07;;;;;;;9.90;2.27;;;;;;;;;;5015236;28;20200;-69
2023/10/21 14:35:33;;;;;;;7.67;2.03;;;;;;;;;;5015622;28;20262;-70
2023/10/21 14:37:59;;;;;;;8.87;2.30;;;;;;;;;;5015082;28;20187;-67
2023/10/21 14:40:25;;;;;;;7.87;2.70;;;;;;;;;;5013963;28;20192;-68
2023/10/21 14:42:51;;;;;;;7.67;2.00;;;;;;;;;;5015888;28;20200;-71
2023/10/21 14:45:17;;;;;;;6.50;2.33;;;;;;;;;;5015310;28;20226;-70
2023/10/21 14:47:43;;;;;;;4.83;1.90;;;;;;;;;;5014689;28;20183;-70
2023/10/21 14:50:09;;;;;;;6.63;1.90;;;;;;;;;;5013305;28;20246;-69
2023/10/21 14:52:37;;;;;;;3.53;1.87;;;;;;;;;;5013311;28;20196;-70
2023/10/21 14:55:05;;;;;;;6.57;1.93;;;;;;;;;;5015079;28;20179;-69
2023/10/21 14:57:31;;;;;;;4.97;1.90;;;;;;;;;;5014371;28;20183;-69
2023/10/21 14:59:58;;;;;;;3.43;1.73;;;;;;;;;;5013244;28;20171;-67
2023/10/21 15:02:24;;;;;;;5.00;2.13;;;;;;;;;;5015468;28;20199;-69
2023/10/21 15:04:50;;;;;;;7.50;2.40;;;;;;;;;;5013360;28;20175;-69
2023/10/21 15:07:17;;;;;;;4.73;1.87;;;;;;;;;;5013191;28;20259;-69